createdAt,value
2019-05-20T00:01:23.883Z,7.97
2019-05-20T00:03:53.558Z,5.43
2019-05-20T00:06:23.231Z,5.97
2019-05-20T00:08:52.802Z,5.10
2019-05-20T00:11:23.045Z,4.07
2019-05-20T00:13:52.746Z,4.93
2019-05-20T00:16:22.319Z,5.17
2019-05-20T00:18:52.099Z,4.43
2019-05-20T00:21:22.413Z,3.90
2019-05-20T00:23:52.195Z,4.60
2019-05-20T00:26:21.822Z,4.60
2019-05-20T00:28:51.532Z,4.50
2019-05-20T00:31:21.665Z,4.00
2019-05-20T00:33:51.509Z,4.33
2019-05-20T00:36:21.087Z,4.47
2019-05-20T00:39:08.769Z,4.50
2019-05-20T00:41:38.491Z,4.90
2019-05-20T00:44:08.159Z,4.27
2019-05-20T00:46:37.723Z,5.50
2019-05-20T00:49:07.420Z,4.70
2019-05-20T00:51:37.163Z,4.33
2019-05-20T00:54:06.911Z,4.70
2019-05-20T00:56:36.539Z,3.97
2019-05-20T00:59:06.316Z,5.60
2019-05-20T01:01:35.947Z,4.57
2019-05-20T01:04:05.559Z,4.60
2019-05-20T01:06:35.182Z,4.93
2019-05-20T01:09:06.582Z,4.67
2019-05-20T01:11:38.955Z,4.87
2019-05-20T01:14:08.757Z,4.90
2019-05-20T01:16:38.376Z,4.40
2019-05-20T01:19:08.050Z,5.13
2019-05-20T01:21:37.708Z,5.00
2019-05-20T01:24:07.499Z,4.30
2019-05-20T01:26:37.107Z,5.37
2019-05-20T01:29:06.760Z,4.43
2019-05-20T01:31:36.359Z,5.63
2019-05-20T01:34:08.185Z,4.63
2019-05-20T01:36:37.758Z,5.07
2019-05-20T01:39:07.472Z,5.80
2019-05-20T01:41:40.535Z,5.00
2019-05-20T01:44:10.187Z,5.37
2019-05-20T01:46:39.767Z,5.57
2019-05-20T01:49:09.464Z,5.20
2019-05-20T01:51:39.091Z,5.77
2019-05-20T01:54:08.729Z,5.10
2019-05-20T01:56:38.274Z,5.83
2019-05-20T01:59:08.064Z,5.70
2019-05-20T02:01:37.638Z,5.80
2019-05-20T02:04:07.442Z,5.43
2019-05-20T02:06:37.072Z,5.30
2019-05-20T02:09:08.365Z,5.63
2019-05-20T02:11:39.556Z,5.47
2019-05-20T02:14:13.050Z,5.70
2019-05-20T02:16:42.718Z,6.00
2019-05-20T02:19:12.369Z,6.03
2019-05-20T02:21:42.105Z,5.83
2019-05-20T02:24:11.715Z,5.47
2019-05-20T02:26:41.386Z,5.80
2019-05-20T02:29:11.138Z,6.00
2019-05-20T02:31:40.865Z,6.10
2019-05-20T02:34:10.539Z,6.70
2019-05-20T02:36:40.138Z,6.43
2019-05-20T02:39:09.887Z,6.30
2019-05-20T02:41:39.952Z,7.60
2019-05-20T02:44:09.549Z,7.37
2019-05-20T02:46:39.257Z,7.27
2019-05-20T02:49:09.139Z,7.47
2019-05-20T02:51:39.125Z,8.07
2019-05-20T02:54:08.800Z,8.13
2019-05-20T02:56:38.465Z,9.37
2019-05-20T02:59:08.213Z,8.77
2019-05-20T03:01:38.282Z,9.63
2019-05-20T03:04:12.139Z,9.87
2019-05-20T03:06:39.228Z,10.07
2019-05-20T03:09:12.112Z,10.67
2019-05-20T03:11:40.838Z,11.07
2019-05-20T03:14:10.561Z,11.83
2019-05-20T03:16:40.253Z,10.97
2019-05-20T03:19:09.825Z,11.63
2019-05-20T03:21:40.639Z,10.80
2019-05-20T03:24:10.264Z,12.00
2019-05-20T03:26:40.124Z,12.90
2019-05-20T03:29:09.705Z,12.37
2019-05-20T03:31:40.429Z,11.70
2019-05-20T03:34:10.079Z,11.60
2019-05-20T03:36:39.863Z,12.67
2019-05-20T03:39:09.455Z,12.17
2019-05-20T03:41:40.428Z,12.10
2019-05-20T03:44:10.089Z,12.60
2019-05-20T03:46:39.825Z,13.13
2019-05-20T03:49:09.486Z,13.00
2019-05-20T03:51:39.884Z,12.17
2019-05-20T03:54:09.604Z,13.07
2019-05-20T03:56:39.355Z,13.83
2019-05-20T03:59:09.016Z,12.17
2019-05-20T04:01:39.391Z,13.40
2019-05-20T04:04:09.067Z,13.10
2019-05-20T04:06:38.853Z,13.57
2019-05-20T04:09:08.540Z,13.60
2019-05-20T04:11:42.278Z,13.23
2019-05-20T04:14:12.599Z,13.93
2019-05-20T04:16:42.447Z,13.70
2019-05-20T04:19:13.139Z,14.83
2019-05-20T04:21:45.129Z,14.30
2019-05-20T04:24:14.896Z,14.80
2019-05-20T04:26:44.969Z,15.43
2019-05-20T04:29:16.836Z,14.70
2019-05-20T04:31:52.701Z,15.90
2019-05-20T04:34:22.457Z,15.53
2019-05-20T04:36:52.214Z,15.30
2019-05-20T04:39:21.981Z,15.37
2019-05-20T04:41:51.684Z,15.93
2019-05-20T04:44:21.400Z,18.00
2019-05-20T04:46:57.339Z,16.93
2019-05-20T04:49:25.477Z,17.13
2019-05-20T04:51:57.141Z,16.20
2019-05-20T04:54:29.136Z,16.63
2019-05-20T04:56:58.896Z,16.63
2019-05-20T04:59:28.723Z,17.90
2019-05-20T05:01:58.507Z,18.97
2019-05-20T05:04:28.132Z,17.50
2019-05-20T05:06:57.827Z,17.70
2019-05-20T05:09:27.473Z,17.53
2019-05-20T05:11:57.511Z,19.03
2019-05-20T05:14:27.260Z,18.47
2019-05-20T05:16:57.087Z,17.43
2019-05-20T05:19:27.043Z,18.83
2019-05-20T05:21:57.070Z,17.30
2019-05-20T05:24:26.755Z,17.50
2019-05-20T05:26:56.709Z,16.73
2019-05-20T05:29:26.589Z,16.30
2019-05-20T05:31:57.708Z,17.27
2019-05-20T05:34:28.434Z,18.13
2019-05-20T05:36:58.251Z,17.90
2019-05-20T05:39:27.994Z,19.13
2019-05-20T05:41:57.754Z,19.20
2019-05-20T05:44:27.448Z,19.17
2019-05-20T05:46:58.354Z,19.43
2019-05-20T05:49:28.083Z,18.80
2019-05-20T05:52:02.135Z,29.87
2019-05-20T05:54:31.707Z,25.47
2019-05-20T05:57:01.516Z,34.13
2019-05-20T05:59:31.234Z,21.77
2019-05-20T06:02:01.667Z,20.70
2019-05-20T06:04:31.349Z,21.17
2019-05-20T06:07:00.939Z,20.93
2019-05-20T06:09:30.608Z,20.77
2019-05-20T06:12:00.283Z,20.23
2019-05-20T06:14:29.967Z,19.53
2019-05-20T06:16:59.698Z,20.97
2019-05-20T06:19:29.509Z,21.10
2019-05-20T06:21:59.076Z,20.70
2019-05-20T06:24:28.822Z,18.83
2019-05-20T06:26:58.442Z,19.53
2019-05-20T06:29:28.246Z,19.50
2019-05-20T06:31:58.180Z,20.47
2019-05-20T06:34:28.086Z,19.93
2019-05-20T06:36:59.443Z,20.33
2019-05-20T06:39:30.422Z,19.73
2019-05-20T06:42:05.718Z,20.70
2019-05-20T06:44:50.214Z,20.60
2019-05-20T06:47:06.875Z,20.93
2019-05-20T06:49:36.941Z,19.33
2019-05-20T06:52:06.635Z,19.13
2019-05-20T06:54:36.532Z,19.73
2019-05-20T06:57:06.433Z,20.70
2019-05-20T06:59:36.239Z,20.77
2019-05-20T07:02:07.687Z,21.47
2019-05-20T07:04:37.500Z,21.70
2019-05-20T07:07:20.019Z,20.57
2019-05-20T07:09:38.671Z,20.70
2019-05-20T07:12:08.467Z,21.30
2019-05-20T07:14:38.175Z,21.00
2019-05-20T07:17:07.839Z,21.80
2019-05-20T07:19:38.626Z,21.40
2019-05-20T07:22:09.389Z,20.87
2019-05-20T07:24:39.279Z,22.33
2019-05-20T07:27:09.020Z,21.47
2019-05-20T07:29:38.892Z,21.70
2019-05-20T07:32:08.555Z,24.10
2019-05-20T07:34:38.435Z,26.67
2019-05-20T07:37:08.125Z,24.97
2019-05-20T07:39:38.031Z,26.13
2019-05-20T07:42:07.813Z,22.77
2019-05-20T07:44:37.405Z,23.20
2019-05-20T07:47:10.537Z,24.67
2019-05-20T07:49:38.587Z,24.13
2019-05-20T07:52:09.064Z,24.93
2019-05-20T07:54:38.783Z,25.80
2019-05-20T07:57:10.237Z,22.83
2019-05-20T07:59:40.971Z,24.03
2019-05-20T08:02:10.774Z,24.60
2019-05-20T08:04:40.402Z,24.20
2019-05-20T08:07:26.912Z,24.47
2019-05-20T08:09:46.061Z,23.37
2019-05-20T08:12:13.369Z,24.50
2019-05-20T08:14:43.036Z,24.60
2019-05-20T08:17:13.026Z,25.53
2019-05-20T08:19:42.594Z,26.17
2019-05-20T08:22:18.104Z,31.23
2019-05-20T08:24:47.748Z,26.23
2019-05-20T08:27:17.372Z,24.17
2019-05-20T08:29:47.010Z,24.37
2019-05-20T08:32:16.652Z,25.27
2019-05-20T08:34:46.229Z,27.70
2019-05-20T08:37:15.974Z,27.40
2019-05-20T08:39:45.672Z,26.63
2019-05-20T08:42:17.380Z,26.33
2019-05-20T08:44:46.996Z,26.67
2019-05-20T08:47:16.960Z,25.60
2019-05-20T08:49:46.902Z,25.83
2019-05-20T08:52:17.789Z,25.93
2019-05-20T08:54:47.361Z,25.07
2019-05-20T08:57:17.048Z,24.57
2019-05-20T08:59:46.993Z,23.77
2019-05-20T09:02:16.740Z,23.93
2019-05-20T09:04:46.368Z,24.17
2019-05-20T09:07:16.046Z,23.63
2019-05-20T09:09:45.709Z,23.87
2019-05-20T09:12:15.450Z,27.10
2019-05-20T09:14:45.025Z,23.87
2019-05-20T09:17:14.776Z,25.43
2019-05-20T09:19:46.944Z,26.33
2019-05-20T09:22:18.740Z,23.87
2019-05-20T09:24:48.603Z,23.20
2019-05-20T09:27:18.803Z,24.43
2019-05-20T09:29:48.548Z,24.83
2019-05-20T09:32:18.274Z,23.57
2019-05-20T09:34:48.828Z,23.00
2019-05-20T09:37:18.521Z,23.53
2019-05-20T09:39:48.148Z,23.10
2019-05-20T09:42:17.826Z,23.63
2019-05-20T09:44:47.463Z,23.10
2019-05-20T09:47:17.178Z,22.00
2019-05-20T09:49:46.775Z,21.83
2019-05-20T09:52:17.683Z,23.20
2019-05-20T09:54:47.342Z,23.57
2019-05-20T09:57:17.231Z,21.97
2019-05-20T09:59:46.814Z,22.03
2019-05-20T10:02:18.843Z,22.67
2019-05-20T10:04:48.474Z,21.77
2019-05-20T10:07:18.209Z,21.90
2019-05-20T10:09:47.875Z,21.90
2019-05-20T10:12:17.551Z,21.87
2019-05-20T10:14:47.219Z,21.03
2019-05-20T10:17:16.910Z,24.67
2019-05-20T10:19:46.595Z,25.40
2019-05-20T10:22:17.701Z,25.33
2019-05-20T10:24:47.343Z,21.57
2019-05-20T10:27:17.078Z,20.23
2019-05-20T10:29:46.832Z,19.87
2019-05-20T10:32:16.895Z,21.03
2019-05-20T10:34:46.704Z,20.23
2019-05-20T10:37:16.507Z,18.80
2019-05-20T10:39:46.216Z,18.53
2019-05-20T10:42:16.286Z,17.37
2019-05-20T10:44:45.963Z,26.57
2019-05-20T10:47:15.651Z,40.60
2019-05-20T10:49:45.230Z,36.17
2019-05-20T10:52:16.441Z,36.67
2019-05-20T10:54:46.073Z,30.60
2019-05-20T10:57:16.013Z,39.60
2019-05-20T10:59:45.644Z,46.20
2019-05-20T11:02:17.155Z,25.27
2019-05-20T11:04:47.072Z,20.40
2019-05-20T11:07:17.037Z,20.57
2019-05-20T11:09:46.620Z,20.27
2019-05-20T11:12:16.915Z,20.97
2019-05-20T11:14:46.871Z,20.23
2019-05-20T11:17:16.502Z,19.27
2019-05-20T11:19:46.326Z,19.77
2019-05-20T11:22:16.796Z,19.73
2019-05-20T11:24:46.512Z,18.97
2019-05-20T11:27:16.336Z,19.73
2019-05-20T11:29:46.294Z,22.60
2019-05-20T11:32:18.677Z,20.53
2019-05-20T11:34:48.987Z,23.03
2019-05-20T11:37:18.626Z,23.03
2019-05-20T11:39:48.270Z,21.27
2019-05-20T11:42:18.587Z,26.40
2019-05-20T11:44:48.252Z,35.47
2019-05-20T11:47:18.014Z,90.97
2019-05-20T11:49:47.775Z,37.10
2019-05-20T11:52:18.375Z,22.23
2019-05-20T11:54:48.376Z,18.90
2019-05-20T11:57:19.069Z,19.40
2019-05-20T11:59:48.708Z,32.77
2019-05-20T12:02:19.022Z,34.90
2019-05-20T12:04:48.982Z,27.40
2019-05-20T12:07:18.668Z,19.30
2019-05-20T12:09:50.091Z,19.00
2019-05-20T12:12:24.857Z,18.47
2019-05-20T12:14:54.655Z,18.70
2019-05-20T12:17:24.246Z,18.20
2019-05-20T12:19:54.019Z,18.00
2019-05-20T12:22:24.100Z,16.53
2019-05-20T12:24:53.779Z,15.83
2019-05-20T12:27:24.867Z,16.20
2019-05-20T12:29:54.648Z,15.27
2019-05-20T12:32:25.050Z,15.60
2019-05-20T12:34:55.809Z,15.30
2019-05-20T12:37:25.483Z,15.67
2019-05-20T12:40:06.413Z,15.00
2019-05-20T12:42:28.422Z,15.40
2019-05-20T12:44:58.408Z,16.37
2019-05-20T12:47:28.055Z,15.40
2019-05-20T12:49:57.838Z,16.33
2019-05-20T12:52:27.567Z,15.77
2019-05-20T12:55:07.834Z,15.87
2019-05-20T12:57:28.667Z,15.13
2019-05-20T12:59:59.088Z,16.90
2019-05-20T13:02:30.469Z,15.57
2019-05-20T13:05:00.147Z,16.27
2019-05-20T13:07:29.792Z,14.37
2019-05-20T13:10:02.830Z,15.90
2019-05-20T13:12:33.014Z,15.57
2019-05-20T13:15:03.133Z,13.67
2019-05-20T13:17:32.836Z,15.27
2019-05-20T13:20:02.453Z,15.20
2019-05-20T13:22:35.187Z,16.10
2019-05-20T13:25:04.862Z,15.33
2019-05-20T13:27:34.551Z,16.07
2019-05-20T13:30:04.557Z,15.20
2019-05-20T13:32:36.197Z,16.37
2019-05-20T13:35:05.727Z,16.03
2019-05-20T13:37:35.594Z,29.20
2019-05-20T13:40:05.473Z,34.23
2019-05-20T13:42:35.410Z,27.20
2019-05-20T13:45:05.347Z,17.67
2019-05-20T13:47:35.182Z,17.43
2019-05-20T13:50:05.515Z,16.87
2019-05-20T13:52:35.399Z,59.30
2019-05-20T13:55:05.408Z,37.97
2019-05-20T13:57:35.424Z,66.83
2019-05-20T14:00:05.134Z,23.73
2019-05-20T14:02:38.069Z,19.57
2019-05-20T14:05:07.907Z,20.47
2019-05-20T14:07:37.862Z,20.93
2019-05-20T14:10:07.816Z,18.83
2019-05-20T14:12:37.731Z,18.30
2019-05-20T14:15:07.723Z,16.07
2019-05-20T14:17:37.571Z,17.13
2019-05-20T14:20:07.491Z,17.93
2019-05-20T14:22:38.534Z,18.33
2019-05-20T14:25:08.293Z,17.93
2019-05-20T14:27:38.163Z,17.93
2019-05-20T14:30:09.207Z,18.40
2019-05-20T14:32:39.058Z,19.17
2019-05-20T14:35:08.739Z,20.53
2019-05-20T14:37:38.598Z,19.17
2019-05-20T14:40:08.278Z,37.53
2019-05-20T14:42:39.586Z,25.37
2019-05-20T14:45:09.475Z,23.27
2019-05-20T14:47:39.427Z,45.07
2019-05-20T14:50:09.205Z,42.83
2019-05-20T14:52:40.215Z,37.03
2019-05-20T14:55:10.116Z,37.07
2019-05-20T14:57:40.235Z,34.10
2019-05-20T15:00:10.195Z,27.43
2019-05-20T15:02:41.283Z,25.40
2019-05-20T15:05:11.067Z,26.40
2019-05-20T15:07:41.013Z,25.97
2019-05-20T15:10:11.093Z,25.33
2019-05-20T15:12:42.060Z,24.83
2019-05-20T15:15:12.234Z,27.03
2019-05-20T15:17:42.029Z,27.23
2019-05-20T15:20:11.947Z,24.93
2019-05-20T15:22:41.985Z,24.33
2019-05-20T15:25:12.061Z,23.90
2019-05-20T15:27:41.782Z,25.63
2019-05-20T15:30:11.515Z,23.33
2019-05-20T15:32:43.679Z,52.73
2019-05-20T15:35:13.288Z,30.37
2019-05-20T15:37:43.122Z,42.80
2019-05-20T15:40:13.264Z,45.27
2019-05-20T15:42:43.547Z,45.87
2019-05-20T15:45:13.299Z,35.47
2019-05-20T15:47:43.163Z,31.93
2019-05-20T15:50:13.114Z,27.60
2019-05-20T15:52:45.802Z,26.47
2019-05-20T15:55:15.453Z,26.67
2019-05-20T15:57:45.248Z,25.83
2019-05-20T16:00:15.523Z,24.73
2019-05-20T16:02:47.067Z,23.47
2019-05-20T16:05:16.764Z,23.53
2019-05-20T16:07:46.372Z,24.67
2019-05-20T16:10:16.120Z,24.77
2019-05-20T16:12:46.065Z,24.10
2019-05-20T16:15:15.834Z,23.60
2019-05-20T16:17:48.279Z,24.60
2019-05-20T16:20:16.875Z,24.03
2019-05-20T16:22:46.815Z,22.97
2019-05-20T16:25:16.953Z,23.57
2019-05-20T16:27:46.547Z,23.83
2019-05-20T16:30:16.320Z,26.00
2019-05-20T16:32:46.489Z,24.07
2019-05-20T16:35:16.259Z,24.00
2019-05-20T16:37:45.854Z,22.50
2019-05-20T16:40:15.484Z,25.43
2019-05-20T16:42:46.790Z,24.77
2019-05-20T16:45:16.633Z,23.63
2019-05-20T16:47:46.276Z,25.03
2019-05-20T16:50:16.224Z,25.57
2019-05-20T16:52:48.638Z,24.67
2019-05-20T16:55:18.402Z,24.77
2019-05-20T16:57:48.216Z,25.17
2019-05-20T17:00:30.495Z,25.07
2019-05-20T17:02:55.631Z,25.07
2019-05-20T17:05:25.319Z,25.57
2019-05-20T17:07:55.014Z,24.80
2019-05-20T17:10:24.662Z,26.63
2019-05-20T17:12:56.607Z,24.73
2019-05-20T17:15:26.274Z,24.33
2019-05-20T17:17:56.017Z,25.70
2019-05-20T17:20:25.681Z,26.43
2019-05-20T17:22:55.376Z,26.40
2019-05-20T17:25:25.070Z,25.03
2019-05-20T17:27:54.796Z,25.73
2019-05-20T17:30:24.510Z,25.17
2019-05-20T17:32:55.389Z,25.17
2019-05-20T17:35:25.118Z,24.83
2019-05-20T17:37:55.429Z,26.37
2019-05-20T17:40:25.460Z,25.47
2019-05-20T17:42:55.198Z,24.60
2019-05-20T17:45:24.854Z,25.17
2019-05-20T17:47:54.437Z,25.53
2019-05-20T17:50:24.061Z,25.40
2019-05-20T17:52:54.041Z,25.30
2019-05-20T17:55:24.075Z,23.27
2019-05-20T17:57:54.088Z,25.47
2019-05-20T18:00:23.925Z,24.77
2019-05-20T18:02:53.964Z,24.93
2019-05-20T18:05:23.925Z,24.80
2019-05-20T18:07:53.610Z,25.13
2019-05-20T18:10:25.066Z,23.83
2019-05-20T18:12:56.819Z,25.57
2019-05-20T18:15:26.643Z,24.77
2019-05-20T18:17:56.335Z,24.03
2019-05-20T18:20:26.342Z,25.67
2019-05-20T18:23:04.005Z,25.57
2019-05-20T18:25:33.829Z,24.93
2019-05-20T18:28:03.479Z,25.63
2019-05-20T18:30:33.251Z,25.57
2019-05-20T18:33:07.177Z,26.40
2019-05-20T18:35:36.823Z,24.63
2019-05-20T18:38:06.454Z,27.43
2019-05-20T18:40:38.960Z,23.60
2019-05-20T18:43:09.866Z,25.93
2019-05-20T18:45:39.799Z,25.60
2019-05-20T18:48:09.432Z,26.33
2019-05-20T18:50:39.187Z,33.00
2019-05-20T18:53:11.183Z,27.87
2019-05-20T18:55:40.921Z,28.50
2019-05-20T18:58:10.553Z,30.50
2019-05-20T19:00:40.316Z,29.63
2019-05-20T19:03:10.027Z,29.90
2019-05-20T19:05:39.835Z,27.40
2019-05-20T19:08:09.534Z,25.53
2019-05-20T19:10:39.251Z,25.70
2019-05-20T19:13:10.212Z,25.77
2019-05-20T19:15:39.991Z,27.50
2019-05-20T19:18:09.658Z,26.97
2019-05-20T19:20:39.484Z,26.03
2019-05-20T19:23:09.104Z,26.70
2019-05-20T19:25:43.908Z,27.73
2019-05-20T19:28:13.148Z,28.73
2019-05-20T19:30:43.065Z,27.73
2019-05-20T19:33:21.781Z,28.20
2019-05-20T19:35:51.615Z,27.77
2019-05-20T19:38:21.344Z,27.77
2019-05-20T19:40:51.141Z,28.20
2019-05-20T19:43:20.781Z,29.23
2019-05-20T19:45:50.634Z,28.33
2019-05-20T19:48:20.312Z,27.20
2019-05-20T19:50:52.414Z,27.53
2019-05-20T19:53:21.998Z,28.70
2019-05-20T19:55:51.861Z,27.77
2019-05-20T19:58:21.533Z,28.23
2019-05-20T20:00:51.317Z,27.73
2019-05-20T20:03:20.951Z,29.40
2019-05-20T20:05:50.587Z,28.57
2019-05-20T20:08:20.239Z,28.13
2019-05-20T20:10:50.000Z,29.80
2019-05-20T20:13:19.699Z,30.43
2019-05-20T20:15:49.496Z,29.50
2019-05-20T20:18:19.230Z,29.17
2019-05-20T20:20:49.124Z,28.53
2019-05-20T20:23:18.862Z,27.53
2019-05-20T20:25:48.624Z,30.30
2019-05-20T20:28:18.264Z,29.17
2019-05-20T20:30:47.874Z,27.67
2019-05-20T20:33:18.985Z,28.53
2019-05-20T20:35:48.630Z,29.43
2019-05-20T20:38:18.302Z,26.67
2019-05-20T20:40:48.021Z,29.27
2019-05-20T20:43:19.985Z,27.43
2019-05-20T20:45:49.230Z,27.40
2019-05-20T20:48:20.708Z,28.93
2019-05-20T20:50:50.498Z,28.10
2019-05-20T20:53:20.220Z,29.23
2019-05-20T20:55:49.864Z,27.67
2019-05-20T20:58:19.613Z,27.70
2019-05-20T21:00:49.485Z,28.03
2019-05-20T21:03:20.632Z,27.80
2019-05-20T21:05:50.337Z,30.03
2019-05-20T21:08:20.102Z,28.70
2019-05-20T21:10:49.890Z,28.73
2019-05-20T21:13:20.708Z,28.00
2019-05-20T21:15:50.343Z,29.30
2019-05-20T21:18:20.130Z,29.67
2019-05-20T21:20:49.751Z,30.20
2019-05-20T21:23:20.125Z,30.63
2019-05-20T21:25:50.170Z,29.80
2019-05-20T21:28:20.836Z,31.33
2019-05-20T21:30:50.875Z,30.37
2019-05-20T21:33:20.795Z,31.80
2019-05-20T21:35:50.904Z,30.00
2019-05-20T21:38:20.561Z,29.80
2019-05-20T21:40:52.657Z,29.57
2019-05-20T21:43:25.051Z,29.50
2019-05-20T21:45:54.662Z,28.80
2019-05-20T21:48:24.591Z,30.87
2019-05-20T21:50:55.394Z,31.97
2019-05-20T21:53:25.271Z,30.73
2019-05-20T21:55:55.038Z,31.00
2019-05-20T21:58:25.051Z,31.90
2019-05-20T22:00:55.096Z,32.07
2019-05-20T22:03:27.617Z,31.40
2019-05-20T22:05:57.332Z,33.10
2019-05-20T22:08:27.242Z,33.10
2019-05-20T22:10:56.962Z,31.60
2019-05-20T22:13:28.433Z,34.00
2019-05-20T22:15:58.218Z,33.57
2019-05-20T22:18:28.162Z,34.43
2019-05-20T22:20:57.850Z,34.67
2019-05-20T22:23:34.151Z,34.23
2019-05-20T22:26:04.071Z,35.17
2019-05-20T22:28:33.785Z,34.60
2019-05-20T22:31:03.509Z,32.53
2019-05-20T22:33:41.245Z,32.47
2019-05-20T22:36:04.501Z,33.53
2019-05-20T22:38:34.333Z,32.67
2019-05-20T22:41:03.953Z,32.57
2019-05-20T22:43:33.664Z,32.43
2019-05-20T22:46:03.366Z,33.80
2019-05-20T22:48:33.035Z,32.97
2019-05-20T22:51:02.615Z,31.20
2019-05-20T22:53:32.358Z,31.20
2019-05-20T22:56:01.989Z,32.10
2019-05-20T22:58:31.915Z,33.33
2019-05-20T23:01:01.590Z,32.37
2019-05-20T23:03:31.254Z,33.37
2019-05-20T23:06:01.629Z,36.03
2019-05-20T23:08:31.186Z,35.17
2019-05-20T23:11:01.325Z,34.10
2019-05-20T23:13:30.905Z,34.70
2019-05-20T23:16:00.558Z,33.27
2019-05-20T23:18:30.255Z,33.80
2019-05-20T23:20:59.943Z,34.63
2019-05-20T23:23:29.688Z,32.73
2019-05-20T23:25:59.366Z,39.40
2019-05-20T23:28:29.053Z,34.13
2019-05-20T23:30:58.738Z,37.53
2019-05-20T23:33:28.416Z,33.33
2019-05-20T23:35:58.173Z,36.00
2019-05-20T23:38:27.715Z,33.83
2019-05-20T23:40:57.406Z,37.30
2019-05-20T23:43:29.282Z,33.10
2019-05-20T23:45:58.971Z,31.30
2019-05-20T23:48:28.568Z,34.80
2019-05-20T23:50:58.300Z,32.70
2019-05-20T23:53:33.726Z,32.90
2019-05-20T23:56:03.431Z,32.20
2019-05-20T23:58:33.037Z,34.33
